createdAt,value
2022-10-05T00:00:05.827Z,960.53
2022-10-05T00:01:05.810Z,960.56
2022-10-05T00:02:05.910Z,960.56
2022-10-05T00:03:05.788Z,960.52
2022-10-05T00:04:05.841Z,960.51
2022-10-05T00:05:05.820Z,960.48
2022-10-05T00:06:05.740Z,960.48
2022-10-05T00:07:05.766Z,960.47
2022-10-05T00:08:05.719Z,960.49
2022-10-05T00:09:05.722Z,960.47
2022-10-05T00:10:05.694Z,960.47
2022-10-05T00:11:05.677Z,960.51
2022-10-05T00:12:05.662Z,960.49
2022-10-05T00:13:05.721Z,960.52
2022-10-05T00:14:05.687Z,960.59
2022-10-05T00:15:05.659Z,960.52
2022-10-05T00:16:05.638Z,960.54
2022-10-05T00:17:05.610Z,960.53
2022-10-05T00:18:05.595Z,960.54
2022-10-05T00:19:05.668Z,960.59
2022-10-05T00:20:05.556Z,960.65
2022-10-05T00:21:05.546Z,960.69
2022-10-05T00:22:05.531Z,960.65
2022-10-05T00:23:05.524Z,960.62
2022-10-05T00:24:05.524Z,960.69
2022-10-05T00:25:05.492Z,960.67
2022-10-05T00:26:05.476Z,960.69
2022-10-05T00:27:05.465Z,960.61
2022-10-05T00:28:05.503Z,960.64
2022-10-05T00:29:05.473Z,960.70
2022-10-05T00:30:05.425Z,960.70
2022-10-05T00:31:05.406Z,960.67
2022-10-05T00:32:05.491Z,960.63
2022-10-05T00:33:05.389Z,960.67
2022-10-05T00:34:05.388Z,960.66
2022-10-05T00:35:05.368Z,960.64
2022-10-05T00:36:05.371Z,960.62
2022-10-05T00:37:05.340Z,960.63
2022-10-05T00:38:05.322Z,960.60
2022-10-05T00:39:05.299Z,960.60
2022-10-05T00:40:05.332Z,960.51
2022-10-05T00:41:05.279Z,960.55
2022-10-05T00:42:05.292Z,960.53
2022-10-05T00:43:05.268Z,960.61
2022-10-05T00:44:05.245Z,960.63
2022-10-05T00:45:05.224Z,960.63
2022-10-05T00:46:05.269Z,960.58
2022-10-05T00:47:05.226Z,960.55
2022-10-05T00:48:05.208Z,960.55
2022-10-05T00:49:05.177Z,960.45
2022-10-05T00:50:05.160Z,960.43
2022-10-05T00:51:05.153Z,960.48
2022-10-05T00:52:05.137Z,960.45
2022-10-05T00:53:05.118Z,960.48
2022-10-05T00:54:05.210Z,960.45
2022-10-05T00:55:05.133Z,960.49
2022-10-05T00:56:05.103Z,960.53
2022-10-05T00:57:05.062Z,960.50
2022-10-05T00:58:05.047Z,960.43
2022-10-05T00:59:05.043Z,960.40
2022-10-05T01:00:05.028Z,960.46
2022-10-05T01:01:05.051Z,960.37
2022-10-05T01:02:05.181Z,960.40
2022-10-05T01:03:04.998Z,960.37
2022-10-05T01:04:05.086Z,960.34
2022-10-05T01:05:04.959Z,960.35
2022-10-05T01:06:04.955Z,960.34
2022-10-05T01:07:04.980Z,960.36
2022-10-05T01:08:04.911Z,960.35
2022-10-05T01:09:04.934Z,960.38
2022-10-05T01:10:04.890Z,960.33
2022-10-05T01:11:04.908Z,960.31
2022-10-05T01:12:04.862Z,960.32
2022-10-05T01:13:04.849Z,960.29
2022-10-05T01:14:04.847Z,960.23
2022-10-05T01:15:04.854Z,960.26
2022-10-05T01:16:04.823Z,960.23
2022-10-05T01:17:04.797Z,960.28
2022-10-05T01:18:04.774Z,960.27
2022-10-05T01:19:04.774Z,960.26
2022-10-05T01:20:04.772Z,960.24
2022-10-05T01:21:04.773Z,960.20
2022-10-05T01:22:04.728Z,960.28
2022-10-05T01:23:04.724Z,960.18
2022-10-05T01:24:04.710Z,960.19
2022-10-05T01:25:04.695Z,960.19
2022-10-05T01:26:04.695Z,960.16
2022-10-05T01:27:04.660Z,960.26
2022-10-05T01:28:04.684Z,960.19
2022-10-05T01:29:04.629Z,960.15
2022-10-05T01:30:04.618Z,960.18
2022-10-05T01:31:04.706Z,960.13
2022-10-05T01:32:04.587Z,960.12
2022-10-05T01:33:04.607Z,960.10
2022-10-05T01:34:09.135Z,960.15
2022-10-05T01:35:04.627Z,960.12
2022-10-05T01:36:04.534Z,960.11
2022-10-05T01:37:04.527Z,960.12
2022-10-05T01:38:04.534Z,960.01
2022-10-05T01:39:04.501Z,960.14
2022-10-05T01:40:04.486Z,960.02
2022-10-05T01:41:04.474Z,960.02
2022-10-05T01:42:04.480Z,959.98
2022-10-05T01:43:04.441Z,960.06
2022-10-05T01:44:04.464Z,959.98
2022-10-05T01:45:04.420Z,960.03
2022-10-05T01:46:04.463Z,960.04
2022-10-05T01:47:04.427Z,959.94
2022-10-05T01:48:04.370Z,959.96
2022-10-05T01:49:04.369Z,959.95
2022-10-05T01:50:04.339Z,959.94
2022-10-05T01:51:04.353Z,959.96
2022-10-05T01:52:04.328Z,959.97
2022-10-05T01:53:04.343Z,959.94
2022-10-05T01:54:04.314Z,959.96
2022-10-05T01:55:04.290Z,959.94
2022-10-05T01:56:04.281Z,959.90
2022-10-05T01:57:04.254Z,959.91
2022-10-05T01:58:04.271Z,959.91
2022-10-05T01:59:04.233Z,959.90
2022-10-05T02:00:04.210Z,959.87
2022-10-05T02:01:04.264Z,959.92
2022-10-05T02:02:04.288Z,959.91
2022-10-05T02:03:04.218Z,959.91
2022-10-05T02:04:04.160Z,959.86
2022-10-05T02:05:04.187Z,959.86
2022-10-05T02:06:04.136Z,959.85
2022-10-05T02:07:04.127Z,959.87
2022-10-05T02:08:04.202Z,959.88
2022-10-05T02:09:04.122Z,959.83
2022-10-05T02:10:04.094Z,959.85
2022-10-05T02:11:04.123Z,959.82
2022-10-05T02:12:04.100Z,959.78
2022-10-05T02:13:04.050Z,959.82
2022-10-05T02:14:04.050Z,959.81
2022-10-05T02:15:04.037Z,959.80
2022-10-05T02:16:04.084Z,959.83
2022-10-05T02:17:03.994Z,959.77
2022-10-05T02:18:03.977Z,959.81
2022-10-05T02:19:03.954Z,959.75
2022-10-05T02:20:03.976Z,959.79
2022-10-05T02:21:03.935Z,959.78
2022-10-05T02:22:03.959Z,959.79
2022-10-05T02:23:03.912Z,959.75
2022-10-05T02:24:03.919Z,959.80
2022-10-05T02:25:03.889Z,959.82
2022-10-05T02:26:03.876Z,959.86
2022-10-05T02:27:03.863Z,959.82
2022-10-05T02:28:03.904Z,959.78
2022-10-05T02:29:03.848Z,959.79
2022-10-05T02:30:03.846Z,959.80
2022-10-05T02:31:03.858Z,959.78
2022-10-05T02:32:03.798Z,959.81
2022-10-05T02:33:03.775Z,959.83
2022-10-05T02:34:03.779Z,959.79
2022-10-05T02:35:03.746Z,959.72
2022-10-05T02:36:03.728Z,959.75
2022-10-05T02:37:03.714Z,959.76
2022-10-05T02:38:03.736Z,959.74
2022-10-05T02:39:03.706Z,959.78
2022-10-05T02:40:03.680Z,959.75
2022-10-05T02:41:03.668Z,959.75
2022-10-05T02:42:03.658Z,959.72
2022-10-05T02:43:03.676Z,959.68
2022-10-05T02:44:03.640Z,959.69
2022-10-05T02:45:03.608Z,959.70
2022-10-05T02:46:03.808Z,959.69
2022-10-05T02:47:03.583Z,959.68
2022-10-05T02:48:03.568Z,959.72
2022-10-05T02:49:03.573Z,959.70
2022-10-05T02:50:03.546Z,959.70
2022-10-05T02:51:03.593Z,959.66
2022-10-05T02:52:03.525Z,959.68
2022-10-05T02:53:03.495Z,959.66
2022-10-05T02:54:03.521Z,959.69
2022-10-05T02:55:03.472Z,959.67
2022-10-05T02:56:03.460Z,959.66
2022-10-05T02:57:03.446Z,959.66
2022-10-05T02:58:03.452Z,959.66
2022-10-05T02:59:03.445Z,959.58
2022-10-05T03:00:03.438Z,959.65
2022-10-05T03:01:03.454Z,959.58
2022-10-05T03:02:03.403Z,959.57
2022-10-05T03:03:03.372Z,959.62
2022-10-05T03:04:03.382Z,959.61
2022-10-05T03:05:03.340Z,959.64
2022-10-05T03:06:03.332Z,959.61
2022-10-05T03:07:03.314Z,959.65
2022-10-05T03:08:03.309Z,959.57
2022-10-05T03:09:03.314Z,959.61
2022-10-05T03:10:03.274Z,959.61
2022-10-05T03:11:03.258Z,959.59
2022-10-05T03:12:03.249Z,959.62
2022-10-05T03:13:03.289Z,959.56
2022-10-05T03:14:03.236Z,959.57
2022-10-05T03:15:03.249Z,959.54
2022-10-05T03:16:03.282Z,959.54
2022-10-05T03:17:03.176Z,959.54
2022-10-05T03:18:03.189Z,959.57
2022-10-05T03:19:03.147Z,959.57
2022-10-05T03:20:03.142Z,959.54
2022-10-05T03:21:03.180Z,959.55
2022-10-05T03:22:03.164Z,959.52
2022-10-05T03:23:03.118Z,959.56
2022-10-05T03:24:03.115Z,959.56
2022-10-05T03:25:03.072Z,959.53
2022-10-05T03:26:03.057Z,959.46
2022-10-05T03:27:03.074Z,959.59
2022-10-05T03:28:03.099Z,959.58
2022-10-05T03:29:03.013Z,959.56
2022-10-05T03:30:03.025Z,959.60
2022-10-05T03:31:03.129Z,959.59
2022-10-05T03:32:03.002Z,959.51
2022-10-05T03:33:02.966Z,959.64
2022-10-05T03:34:02.998Z,959.67
2022-10-05T03:35:02.938Z,959.63
2022-10-05T03:36:02.932Z,959.66
2022-10-05T03:37:02.941Z,959.64
2022-10-05T03:38:02.924Z,959.64
2022-10-05T03:39:02.883Z,959.66
2022-10-05T03:40:02.904Z,959.68
2022-10-05T03:41:02.900Z,959.62
2022-10-05T03:42:02.851Z,959.64
2022-10-05T03:43:02.829Z,959.59
2022-10-05T03:44:02.852Z,959.59
2022-10-05T03:45:02.804Z,959.62
2022-10-05T03:46:02.858Z,959.59
2022-10-05T03:47:02.816Z,959.61
2022-10-05T03:48:02.778Z,959.59
2022-10-05T03:49:02.754Z,959.47
2022-10-05T03:50:02.736Z,959.47
2022-10-05T03:51:02.726Z,959.55
2022-10-05T03:52:02.731Z,959.56
2022-10-05T03:53:02.738Z,959.61
2022-10-05T03:54:02.684Z,959.54
2022-10-05T03:55:02.697Z,959.56
2022-10-05T03:56:03.426Z,959.65
2022-10-05T03:57:02.641Z,959.57
2022-10-05T03:58:02.667Z,959.64
2022-10-05T03:59:02.641Z,959.68
2022-10-05T04:00:02.617Z,959.60
2022-10-05T04:01:02.612Z,959.63
2022-10-05T04:02:02.577Z,959.68
2022-10-05T04:03:02.619Z,959.69
2022-10-05T04:04:02.570Z,959.63
2022-10-05T04:05:02.536Z,959.61
2022-10-05T04:06:02.527Z,959.66
2022-10-05T04:07:02.500Z,959.59
2022-10-05T04:08:02.529Z,959.67
2022-10-05T04:09:02.503Z,959.72
2022-10-05T04:10:02.474Z,959.62
2022-10-05T04:11:02.450Z,959.66
2022-10-05T04:12:02.438Z,959.70
2022-10-05T04:13:02.457Z,959.67
2022-10-05T04:14:02.409Z,959.71
2022-10-05T04:15:02.424Z,959.69
2022-10-05T04:16:02.510Z,959.75
2022-10-05T04:17:02.372Z,959.69
2022-10-05T04:18:02.359Z,959.64
2022-10-05T04:19:02.372Z,959.67
2022-10-05T04:20:02.351Z,959.67
2022-10-05T04:21:02.314Z,959.67
2022-10-05T04:22:02.312Z,959.60
2022-10-05T04:23:02.326Z,959.60
2022-10-05T04:24:02.291Z,959.62
2022-10-05T04:25:02.297Z,959.62
2022-10-05T04:26:02.246Z,959.63
2022-10-05T04:27:02.279Z,959.71
2022-10-05T04:28:02.295Z,959.67
2022-10-05T04:29:02.220Z,959.71
2022-10-05T04:30:02.232Z,959.71
2022-10-05T04:31:02.255Z,959.69
2022-10-05T04:32:02.195Z,959.72
2022-10-05T04:33:02.150Z,959.79
2022-10-05T04:34:02.166Z,959.79
2022-10-05T04:35:02.125Z,959.74
2022-10-05T04:36:02.123Z,959.76
2022-10-05T04:37:02.109Z,959.81
2022-10-05T04:38:02.122Z,959.76
2022-10-05T04:39:02.070Z,959.75
2022-10-05T04:40:02.066Z,959.75
2022-10-05T04:41:02.059Z,959.77
2022-10-05T04:42:02.049Z,959.79
2022-10-05T04:43:02.042Z,959.71
2022-10-05T04:44:02.007Z,959.76
2022-10-05T04:45:02.016Z,959.79
2022-10-05T04:46:02.019Z,959.68
2022-10-05T04:47:02.078Z,959.71
2022-10-05T04:48:01.969Z,959.71
2022-10-05T04:49:01.951Z,959.76
2022-10-05T04:50:01.977Z,959.66
2022-10-05T04:51:01.913Z,959.72
2022-10-05T04:52:01.905Z,959.68
2022-10-05T04:53:01.924Z,959.70
2022-10-05T04:54:01.872Z,959.73
2022-10-05T04:55:01.866Z,959.73
2022-10-05T04:56:01.882Z,959.78
2022-10-05T04:57:01.847Z,959.75
2022-10-05T04:58:01.819Z,959.81
2022-10-05T04:59:01.802Z,959.79
2022-10-05T05:00:01.825Z,959.85
2022-10-05T05:01:01.882Z,959.79
2022-10-05T05:02:01.795Z,959.83
2022-10-05T05:03:01.760Z,959.94
2022-10-05T05:04:01.853Z,959.85
2022-10-05T05:05:01.715Z,959.83
2022-10-05T05:06:18.258Z,959.90
2022-10-05T05:07:01.706Z,959.90
2022-10-05T05:08:01.709Z,959.82
2022-10-05T05:09:01.694Z,959.86
2022-10-05T05:10:01.660Z,959.86
2022-10-05T05:11:01.647Z,959.80
2022-10-05T05:12:01.642Z,959.84
2022-10-05T05:13:01.670Z,959.82
2022-10-05T05:14:01.601Z,959.82
2022-10-05T05:15:01.596Z,959.80
2022-10-05T05:16:01.628Z,959.80
2022-10-05T05:17:01.554Z,959.79
2022-10-05T05:18:01.587Z,959.90
2022-10-05T05:19:01.532Z,959.84
2022-10-05T05:20:01.537Z,959.84
2022-10-05T05:21:01.516Z,959.87
2022-10-05T05:22:01.491Z,959.91
2022-10-05T05:23:01.517Z,959.88
2022-10-05T05:24:01.478Z,959.91
2022-10-05T05:25:01.501Z,959.92
2022-10-05T05:26:01.447Z,959.94
2022-10-05T05:27:01.430Z,959.95
2022-10-05T05:28:01.514Z,959.92
2022-10-05T05:29:01.401Z,959.93
2022-10-05T05:30:01.389Z,959.96
2022-10-05T05:31:01.422Z,959.93
2022-10-05T05:32:01.361Z,959.91
2022-10-05T05:33:01.368Z,959.97
2022-10-05T05:34:01.354Z,959.94
2022-10-05T05:35:01.318Z,959.94
2022-10-05T05:36:01.320Z,960.02
2022-10-05T05:37:01.323Z,959.98
2022-10-05T05:38:01.294Z,960.00
2022-10-05T05:39:01.276Z,959.99
2022-10-05T05:40:01.256Z,960.01
2022-10-05T05:41:01.261Z,959.97
2022-10-05T05:42:01.252Z,959.95
2022-10-05T05:43:01.225Z,959.97
2022-10-05T05:44:01.203Z,959.96
2022-10-05T05:45:01.187Z,959.96
2022-10-05T05:46:01.183Z,959.93
2022-10-05T05:47:04.373Z,959.93
2022-10-05T05:48:01.153Z,959.96
2022-10-05T05:49:01.132Z,960.01
2022-10-05T05:50:06.709Z,959.97
2022-10-05T05:51:01.150Z,960.02
2022-10-05T05:52:01.097Z,960.00
2022-10-05T05:53:01.132Z,960.04
2022-10-05T05:54:01.071Z,960.06
2022-10-05T05:55:01.094Z,960.10
2022-10-05T05:56:01.074Z,960.10
2022-10-05T05:57:01.036Z,960.11
2022-10-05T05:58:01.019Z,960.09
2022-10-05T05:59:01.001Z,960.12
2022-10-05T06:00:00.995Z,960.12
2022-10-05T06:01:00.993Z,960.11
2022-10-05T06:02:01.138Z,960.14
2022-10-05T06:03:01.020Z,960.08
2022-10-05T06:04:00.946Z,960.15
2022-10-05T06:05:00.925Z,960.15
2022-10-05T06:06:00.911Z,960.15
2022-10-05T06:07:00.918Z,960.13
2022-10-05T06:08:00.884Z,960.16
2022-10-05T06:09:00.869Z,960.12
2022-10-05T06:10:00.860Z,960.22
2022-10-05T06:11:00.855Z,960.18
2022-10-05T06:12:01.007Z,960.20
2022-10-05T06:13:01.855Z,960.18
2022-10-05T06:14:00.840Z,960.22
2022-10-05T06:15:00.788Z,960.22
2022-10-05T06:16:00.830Z,960.20
2022-10-05T06:17:00.763Z,960.22
2022-10-05T06:18:00.764Z,960.21
2022-10-05T06:19:00.774Z,960.23
2022-10-05T06:20:04.961Z,960.24
2022-10-05T06:21:00.733Z,960.30
2022-10-05T06:22:00.697Z,960.23
2022-10-05T06:23:00.682Z,960.18
2022-10-05T06:24:00.686Z,960.20
2022-10-05T06:25:00.679Z,960.20
2022-10-05T06:26:00.649Z,960.19
2022-10-05T06:27:00.626Z,960.20
2022-10-05T06:28:00.711Z,960.18
2022-10-05T06:29:00.600Z,960.16
2022-10-05T06:30:00.599Z,960.14
2022-10-05T06:31:00.584Z,960.22
2022-10-05T06:32:00.628Z,960.18
2022-10-05T06:33:00.587Z,960.19
2022-10-05T06:34:00.534Z,960.19
2022-10-05T06:35:00.529Z,960.16
2022-10-05T06:36:00.507Z,960.22
2022-10-05T06:37:00.507Z,960.16
2022-10-05T06:38:00.504Z,960.24
2022-10-05T06:39:00.463Z,960.20
2022-10-05T06:40:01.344Z,960.20
2022-10-05T06:41:00.444Z,960.16
2022-10-05T06:42:00.427Z,960.20
2022-10-05T06:43:00.452Z,960.19
2022-10-05T06:44:00.393Z,960.22
2022-10-05T06:45:00.388Z,960.15
2022-10-05T06:46:00.410Z,960.19
2022-10-05T06:47:00.389Z,960.19
2022-10-05T06:48:05.052Z,960.19
2022-10-05T06:49:00.347Z,960.11
2022-10-05T06:50:00.315Z,960.12
2022-10-05T06:51:00.340Z,960.19
2022-10-05T06:52:00.296Z,960.21
2022-10-05T06:53:00.287Z,960.17
2022-10-05T06:54:00.300Z,960.16
2022-10-05T06:55:00.276Z,960.19
2022-10-05T06:56:00.264Z,960.20
2022-10-05T06:57:00.255Z,960.20
2022-10-05T06:58:00.212Z,960.23
2022-10-05T06:59:00.209Z,960.27
2022-10-05T07:00:00.191Z,960.28
2022-10-05T07:01:00.301Z,960.26
2022-10-05T07:02:00.257Z,960.25
2022-10-05T07:03:00.151Z,960.28
2022-10-05T07:04:00.142Z,960.25
2022-10-05T07:05:00.127Z,960.24
2022-10-05T07:06:00.114Z,960.29
2022-10-05T07:07:00.144Z,960.30
2022-10-05T07:08:00.086Z,960.25
2022-10-05T07:09:00.068Z,960.25
2022-10-05T07:10:00.097Z,960.26
2022-10-05T07:11:00.043Z,960.24
2022-10-05T07:12:04.736Z,960.27
2022-10-05T07:13:00.095Z,960.23
2022-10-05T07:13:59.991Z,960.18
2022-10-05T07:14:59.993Z,960.21
2022-10-05T07:16:00.154Z,960.23
2022-10-05T07:16:59.952Z,960.25
2022-10-05T07:17:59.986Z,960.24
2022-10-05T07:18:59.940Z,960.26
2022-10-05T07:20:00.008Z,960.27
2022-10-05T07:20:59.948Z,960.31
2022-10-05T07:21:59.984Z,960.28
2022-10-05T07:22:59.916Z,960.26
2022-10-05T07:23:59.856Z,960.30
2022-10-05T07:24:59.861Z,960.29
2022-10-05T07:25:59.863Z,960.29
2022-10-05T07:26:59.842Z,960.30
2022-10-05T07:27:59.871Z,960.39
2022-10-05T07:28:59.924Z,960.34
2022-10-05T07:29:59.783Z,960.37
2022-10-05T07:30:59.892Z,960.35
2022-10-05T07:31:59.780Z,960.34
2022-10-05T07:32:59.755Z,960.34
2022-10-05T07:33:59.725Z,960.35
2022-10-05T07:34:59.721Z,960.35
2022-10-05T07:35:59.730Z,960.38
2022-10-05T07:36:59.734Z,960.37
2022-10-05T07:37:59.712Z,960.36
2022-10-05T07:38:59.664Z,960.31
2022-10-05T07:40:01.145Z,960.29
2022-10-05T07:40:59.659Z,960.31
2022-10-05T07:41:59.621Z,960.31
2022-10-05T07:42:59.649Z,960.31
2022-10-05T07:44:03.403Z,960.27
2022-10-05T07:44:59.590Z,960.26
2022-10-05T07:45:59.600Z,960.29
2022-10-05T07:46:59.559Z,960.34
2022-10-05T07:47:59.573Z,960.33
2022-10-05T07:48:59.524Z,960.35
2022-10-05T07:49:59.514Z,960.33
2022-10-05T07:50:59.522Z,960.31
2022-10-05T07:51:59.525Z,960.31
2022-10-05T07:52:59.505Z,960.31
2022-10-05T07:53:59.460Z,960.28
2022-10-05T07:54:59.458Z,960.23
2022-10-05T07:55:59.459Z,960.23
2022-10-05T07:56:59.423Z,960.20
2022-10-05T07:57:59.412Z,960.17
2022-10-05T07:58:59.431Z,960.22
2022-10-05T07:59:59.385Z,960.24
2022-10-05T08:00:59.374Z,960.26
2022-10-05T08:01:59.467Z,960.24
2022-10-05T08:02:59.505Z,960.26
2022-10-05T08:03:59.356Z,960.25
2022-10-05T08:04:59.310Z,960.25
2022-10-05T08:05:59.298Z,960.23
2022-10-05T08:06:59.287Z,960.22
2022-10-05T08:07:59.283Z,960.22
2022-10-05T08:08:59.297Z,960.21
2022-10-05T08:09:59.251Z,960.15
2022-10-05T08:10:59.242Z,960.14
2022-10-05T08:11:59.223Z,960.15
2022-10-05T08:12:59.221Z,960.16
2022-10-05T08:13:59.223Z,960.17
2022-10-05T08:14:59.191Z,960.18
2022-10-05T08:15:59.223Z,960.22
2022-10-05T08:16:59.170Z,960.20
2022-10-05T08:17:59.180Z,960.13
2022-10-05T08:18:59.135Z,960.13
2022-10-05T08:19:59.116Z,960.11
2022-10-05T08:20:59.108Z,960.13
2022-10-05T08:21:59.088Z,960.07
2022-10-05T08:22:59.094Z,960.12
2022-10-05T08:23:59.077Z,960.10
2022-10-05T08:24:59.048Z,960.07
2022-10-05T08:25:59.042Z,960.17
2022-10-05T08:26:59.046Z,960.12
2022-10-05T08:27:59.131Z,960.06
2022-10-05T08:28:59.010Z,960.10
2022-10-05T08:29:59.009Z,960.09
2022-10-05T08:30:59.062Z,960.12
2022-10-05T08:31:58.979Z,960.09
2022-10-05T08:32:58.971Z,960.05
2022-10-05T08:33:58.941Z,960.10
2022-10-05T08:34:58.913Z,960.12
2022-10-05T08:35:58.904Z,960.13
2022-10-05T08:36:58.895Z,960.07
2022-10-05T08:37:58.910Z,960.09
2022-10-05T08:38:58.864Z,960.08
2022-10-05T08:39:58.860Z,960.07
2022-10-05T08:40:58.834Z,960.06
2022-10-05T08:41:58.828Z,960.05
2022-10-05T08:42:58.838Z,960.01
2022-10-05T08:43:58.793Z,960.03
2022-10-05T08:44:58.785Z,960.01
2022-10-05T08:45:58.867Z,960.04
2022-10-05T08:46:58.753Z,960.02
2022-10-05T08:47:58.775Z,959.96
2022-10-05T08:48:58.754Z,960.00
2022-10-05T08:49:58.710Z,959.96
2022-10-05T08:50:58.744Z,959.96
2022-10-05T08:51:58.685Z,959.99
2022-10-05T08:52:58.810Z,959.97
2022-10-05T08:53:58.657Z,959.99
2022-10-05T08:54:58.672Z,959.98
2022-10-05T08:55:58.637Z,959.99
2022-10-05T08:56:58.653Z,959.97
2022-10-05T08:57:58.640Z,959.97
2022-10-05T08:58:58.600Z,959.96
2022-10-05T08:59:58.580Z,959.95
2022-10-05T09:00:58.659Z,959.97
2022-10-05T09:01:58.638Z,959.96
2022-10-05T09:02:58.673Z,959.96
2022-10-05T09:03:58.563Z,959.99
2022-10-05T09:04:58.538Z,959.98
2022-10-05T09:05:58.535Z,959.94
2022-10-05T09:06:58.498Z,959.96
2022-10-05T09:07:58.464Z,959.92
2022-10-05T09:08:58.506Z,959.93
2022-10-05T09:10:01.689Z,959.94
2022-10-05T09:10:58.440Z,959.97
2022-10-05T09:11:58.418Z,959.99
2022-10-05T09:12:58.411Z,959.97
2022-10-05T09:13:58.426Z,959.96
2022-10-05T09:15:23.844Z,959.94
2022-10-05T09:15:58.433Z,959.97
2022-10-05T09:16:58.353Z,959.94
2022-10-05T09:17:58.346Z,959.92
2022-10-05T09:18:58.333Z,959.97
2022-10-05T09:19:58.340Z,959.92
2022-10-05T09:20:58.307Z,959.92
2022-10-05T09:21:58.293Z,959.95
2022-10-05T09:22:58.269Z,959.94
2022-10-05T09:23:58.267Z,959.95
2022-10-05T09:24:58.262Z,959.94
2022-10-05T09:25:58.260Z,959.98
2022-10-05T09:26:58.216Z,959.93
2022-10-05T09:27:58.263Z,959.96
2022-10-05T09:28:58.199Z,959.93
2022-10-05T09:29:58.204Z,959.96
2022-10-05T09:30:58.225Z,959.91
2022-10-05T09:31:58.157Z,959.92
2022-10-05T09:32:58.173Z,959.92
2022-10-05T09:33:58.130Z,959.93
2022-10-05T09:34:58.108Z,959.95
2022-10-05T09:35:58.109Z,959.96
2022-10-05T09:36:58.121Z,959.97
2022-10-05T09:37:58.077Z,959.92
2022-10-05T09:38:58.092Z,959.90
2022-10-05T09:40:01.360Z,959.96
2022-10-05T09:40:58.067Z,959.90
2022-10-05T09:41:58.077Z,959.89
2022-10-05T09:42:58.013Z,959.90
2022-10-05T09:43:58.022Z,959.92
2022-10-05T09:44:57.991Z,959.92
2022-10-05T09:45:58.010Z,959.93
2022-10-05T09:46:57.956Z,959.94
2022-10-05T09:47:57.973Z,959.90
2022-10-05T09:48:57.949Z,959.91
2022-10-05T09:49:57.911Z,959.87
2022-10-05T09:50:57.903Z,959.88
2022-10-05T09:51:57.881Z,959.88
2022-10-05T09:52:57.896Z,959.82
2022-10-05T09:53:57.887Z,959.81
2022-10-05T09:54:57.867Z,959.82
2022-10-05T09:55:57.838Z,959.83
2022-10-05T09:56:57.819Z,959.82
2022-10-05T09:57:57.836Z,959.81
2022-10-05T09:58:57.799Z,959.74
2022-10-05T09:59:57.814Z,959.76
2022-10-05T10:01:09.039Z,959.74
2022-10-05T10:01:57.807Z,959.74
2022-10-05T10:02:57.836Z,959.74
2022-10-05T10:03:57.731Z,959.73
2022-10-05T10:04:57.741Z,959.70
2022-10-05T10:05:57.703Z,959.73
2022-10-05T10:06:57.683Z,959.74
2022-10-05T10:07:57.680Z,959.73
2022-10-05T10:08:57.693Z,959.73
2022-10-05T10:09:57.671Z,959.70
2022-10-05T10:10:57.636Z,959.66
2022-10-05T10:11:57.612Z,959.69
2022-10-05T10:12:57.608Z,959.68
2022-10-05T10:13:57.609Z,959.64
2022-10-05T10:15:01.981Z,959.62
2022-10-05T10:15:57.727Z,959.63
2022-10-05T10:16:57.606Z,959.67
2022-10-05T10:17:57.539Z,959.69
2022-10-05T10:18:57.562Z,959.62
2022-10-05T10:19:57.511Z,959.71
2022-10-05T10:20:57.498Z,959.70
2022-10-05T10:21:57.549Z,959.69
2022-10-05T10:22:57.466Z,959.68
2022-10-05T10:23:57.489Z,959.69
2022-10-05T10:24:57.453Z,959.65
2022-10-05T10:25:57.434Z,959.67
2022-10-05T10:26:57.427Z,959.66
2022-10-05T10:27:57.491Z,959.69
2022-10-05T10:28:57.404Z,959.64
2022-10-05T10:29:57.436Z,959.61
2022-10-05T10:30:57.457Z,959.58
2022-10-05T10:31:57.358Z,959.57
2022-10-05T10:32:57.373Z,959.59
2022-10-05T10:33:57.329Z,959.61
2022-10-05T10:34:57.328Z,959.63
2022-10-05T10:35:57.772Z,959.61
2022-10-05T10:36:57.314Z,959.63
2022-10-05T10:37:57.359Z,959.60
2022-10-05T10:38:57.292Z,959.65
2022-10-05T10:39:57.288Z,959.60
2022-10-05T10:40:57.241Z,959.64
2022-10-05T10:41:57.258Z,959.65
2022-10-05T10:42:57.203Z,959.61
2022-10-05T10:43:57.209Z,959.65
2022-10-05T10:44:57.192Z,959.64
2022-10-05T10:45:57.229Z,959.67
2022-10-05T10:46:57.268Z,959.62
2022-10-05T10:47:57.153Z,959.61
2022-10-05T10:48:57.138Z,959.62
2022-10-05T10:49:57.175Z,959.62
2022-10-05T10:50:57.144Z,959.63
2022-10-05T10:51:57.096Z,959.60
2022-10-05T10:52:57.114Z,959.61
2022-10-05T10:53:57.071Z,959.59
2022-10-05T10:54:57.050Z,959.60
2022-10-05T10:55:57.045Z,959.54
2022-10-05T10:56:57.065Z,959.55
2022-10-05T10:57:57.043Z,959.52
2022-10-05T10:58:57.002Z,959.55
2022-10-05T10:59:56.991Z,959.52
2022-10-05T11:00:56.976Z,959.55
2022-10-05T11:01:57.061Z,959.52
2022-10-05T11:02:57.059Z,959.51
2022-10-05T11:03:56.938Z,959.53
2022-10-05T11:04:56.918Z,959.53
2022-10-05T11:05:56.914Z,959.52
2022-10-05T11:06:56.894Z,959.50
2022-10-05T11:07:56.918Z,959.55
2022-10-05T11:08:56.871Z,959.56
2022-10-05T11:09:56.860Z,959.53
2022-10-05T11:10:56.868Z,959.55
2022-10-05T11:11:56.837Z,959.54
2022-10-05T11:12:56.850Z,959.53
2022-10-05T11:13:56.821Z,959.49
2022-10-05T11:14:56.797Z,959.49
2022-10-05T11:15:57.003Z,959.50
2022-10-05T11:16:56.796Z,959.49
2022-10-05T11:17:56.809Z,959.48
2022-10-05T11:18:56.812Z,959.45
2022-10-05T11:20:04.212Z,959.47
2022-10-05T11:20:56.721Z,959.43
2022-10-05T11:21:56.706Z,959.44
2022-10-05T11:22:56.696Z,959.41
2022-10-05T11:23:56.699Z,959.40
2022-10-05T11:24:56.709Z,959.37
2022-10-05T11:25:56.650Z,959.35
2022-10-05T11:26:56.696Z,959.30
2022-10-05T11:27:56.926Z,959.34
2022-10-05T11:28:56.663Z,959.31
2022-10-05T11:29:56.600Z,959.27
2022-10-05T11:30:56.621Z,959.26
2022-10-05T11:31:56.663Z,959.23
2022-10-05T11:32:56.576Z,959.25
2022-10-05T11:33:56.553Z,959.20
2022-10-05T11:34:56.564Z,959.18
2022-10-05T11:35:56.525Z,959.17
2022-10-05T11:36:56.504Z,959.19
2022-10-05T11:37:56.504Z,959.19
2022-10-05T11:38:56.510Z,959.18
2022-10-05T11:39:56.501Z,959.18
2022-10-05T11:40:56.450Z,959.18
2022-10-05T11:41:56.436Z,959.16
2022-10-05T11:42:56.425Z,959.13
2022-10-05T11:43:56.416Z,959.17
2022-10-05T11:44:56.455Z,959.14
2022-10-05T11:45:56.420Z,959.15
2022-10-05T11:46:56.426Z,959.06
2022-10-05T11:47:56.378Z,959.08
2022-10-05T11:48:56.362Z,959.04
2022-10-05T11:49:56.373Z,959.02
2022-10-05T11:50:56.351Z,959.02
2022-10-05T11:51:56.338Z,959.03
2022-10-05T11:52:56.298Z,958.99
2022-10-05T11:53:56.285Z,959.00
2022-10-05T11:55:10.350Z,958.95
2022-10-05T11:55:56.304Z,958.95
2022-10-05T11:56:56.599Z,958.97
2022-10-05T11:57:56.244Z,958.96
2022-10-05T11:58:56.236Z,958.96
2022-10-05T11:59:56.227Z,958.94
2022-10-05T12:00:56.213Z,958.95
2022-10-05T12:01:56.221Z,958.91
2022-10-05T12:02:56.289Z,958.93
2022-10-05T12:03:56.364Z,958.90
2022-10-05T12:04:56.152Z,958.90
2022-10-05T12:05:56.147Z,958.90
2022-10-05T12:06:56.153Z,958.88
2022-10-05T12:07:56.143Z,958.84
2022-10-05T12:08:56.130Z,958.87
2022-10-05T12:09:56.090Z,958.86
2022-10-05T12:10:56.075Z,958.86
2022-10-05T12:11:58.036Z,958.87
2022-10-05T12:12:56.636Z,958.85
2022-10-05T12:13:56.034Z,958.81
2022-10-05T12:14:56.064Z,958.84
2022-10-05T12:15:56.070Z,958.86
2022-10-05T12:16:55.997Z,958.82
2022-10-05T12:17:56.001Z,958.80
2022-10-05T12:18:55.971Z,958.80
2022-10-05T12:19:55.989Z,958.76
2022-10-05T12:20:55.961Z,958.76
2022-10-05T12:21:55.954Z,958.75
2022-10-05T12:22:56.331Z,958.71
2022-10-05T12:23:55.907Z,958.73
2022-10-05T12:24:55.888Z,958.72
2022-10-05T12:25:55.887Z,958.72
2022-10-05T12:26:55.905Z,958.71
2022-10-05T12:27:55.919Z,958.68